createdAt,value
2023-02-24T00:02:00.449Z,100523.16
2023-02-24T00:04:30.271Z,100524.16
2023-02-24T00:06:58.340Z,100520.58
2023-02-24T00:09:27.688Z,100518.93
2023-02-24T00:12:00.177Z,100518.35
2023-02-24T00:14:30.983Z,100520.26
2023-02-24T00:16:59.201Z,100514.73
2023-02-24T00:19:28.891Z,100515.59
2023-02-24T00:21:57.301Z,100515.38
2023-02-24T00:24:25.792Z,100513.57
2023-02-24T00:26:55.095Z,100512.64
2023-02-24T00:29:23.911Z,100512.44
2023-02-24T00:31:53.215Z,100510.61
2023-02-24T00:34:22.098Z,100510.56
2023-02-24T00:36:50.149Z,100515.49
2023-02-24T00:39:18.053Z,100519.70
2023-02-24T00:41:48.352Z,100526.76
2023-02-24T00:44:16.369Z,100527.96
2023-02-24T00:46:45.563Z,100532.55
2023-02-24T00:49:16.196Z,100533.78
2023-02-24T00:51:45.975Z,100535.38
2023-02-24T00:54:14.020Z,100534.31
2023-02-24T00:56:43.122Z,100540.32
2023-02-24T00:59:11.738Z,100536.23
2023-02-24T01:01:40.316Z,100535.52
2023-02-24T01:04:09.004Z,100548.25
2023-02-24T01:06:42.115Z,100548.23
2023-02-24T01:09:11.808Z,100546.66
2023-02-24T01:11:39.895Z,100549.48
2023-02-24T01:14:09.838Z,100546.66
2023-02-24T01:16:37.976Z,100543.83
2023-02-24T01:19:05.920Z,100543.64
2023-02-24T01:21:34.525Z,100544.16
2023-02-24T01:24:02.956Z,100541.52
2023-02-24T01:26:30.900Z,100539.71
2023-02-24T01:28:59.235Z,100537.95
2023-02-24T01:31:27.849Z,100538.63
2023-02-24T01:33:56.075Z,100537.88
2023-02-24T01:36:26.291Z,100534.83
2023-02-24T01:38:54.595Z,100534.95
2023-02-24T01:41:24.105Z,100537.21
2023-02-24T01:44:07.824Z,100537.17
2023-02-24T01:46:36.947Z,100536.07
2023-02-24T01:49:17.974Z,100534.63
2023-02-24T01:52:06.201Z,100533.90
2023-02-24T01:54:37.524Z,100531.05
2023-02-24T01:57:06.813Z,100530.67
2023-02-24T01:59:35.184Z,100534.92
2023-02-24T02:02:05.117Z,100532.05
2023-02-24T02:04:39.773Z,100529.71
2023-02-24T02:07:08.670Z,100530.35
2023-02-24T02:09:38.699Z,100526.23
2023-02-24T02:12:06.713Z,100524.06
2023-02-24T02:14:37.892Z,100521.72
2023-02-24T02:17:18.051Z,100524.33
2023-02-24T02:20:15.154Z,100528.35
2023-02-24T02:23:01.972Z,100527.59
2023-02-24T02:25:40.608Z,100524.20
2023-02-24T02:28:14.585Z,100516.92
2023-02-24T02:30:51.389Z,100516.90
2023-02-24T02:33:27.566Z,100512.62
2023-02-24T02:36:14.411Z,100514.34
2023-02-24T02:38:51.364Z,100513.27
2023-02-24T02:41:28.601Z,100512.35
2023-02-24T02:44:21.218Z,100512.88
2023-02-24T02:47:11.307Z,100505.63
2023-02-24T02:49:43.384Z,100501.68
2023-02-24T02:52:29.397Z,100501.45
2023-02-24T02:55:03.141Z,100498.74
2023-02-24T02:57:32.229Z,100496.23
2023-02-24T03:00:00.209Z,100496.17
2023-02-24T03:02:32.228Z,100499.11
2023-02-24T03:05:02.014Z,100499.44
2023-02-24T03:07:34.118Z,100501.02
2023-02-24T03:10:04.072Z,100506.80
2023-02-24T03:12:33.317Z,100504.29
2023-02-24T03:15:04.025Z,100498.40
2023-02-24T03:17:40.973Z,100499.06
2023-02-24T03:20:35.539Z,100497.60
2023-02-24T03:23:24.003Z,100497.02
2023-02-24T03:25:54.990Z,100494.31
2023-02-24T03:28:28.499Z,100497.63
2023-02-24T03:31:01.254Z,100495.84
2023-02-24T03:33:49.538Z,100493.84
2023-02-24T03:36:18.441Z,100493.64
2023-02-24T03:38:47.580Z,100496.45
2023-02-24T03:41:15.529Z,100493.80
2023-02-24T03:43:44.983Z,100489.04
2023-02-24T03:46:14.687Z,100491.35
2023-02-24T03:48:47.317Z,100492.94
2023-02-24T03:51:18.930Z,100491.89
2023-02-24T03:53:51.347Z,100495.41
2023-02-24T03:56:22.136Z,100501.26
2023-02-24T03:59:04.935Z,100508.36
2023-02-24T04:01:59.339Z,100510.69
2023-02-24T04:04:33.321Z,100507.52
2023-02-24T04:07:12.470Z,100508.44
2023-02-24T04:09:49.506Z,100510.23
2023-02-24T04:12:25.267Z,100512.55
2023-02-24T04:15:09.990Z,100512.38
2023-02-24T04:17:40.207Z,100514.39
2023-02-24T04:20:10.369Z,100517.95
2023-02-24T04:22:38.952Z,100517.44
2023-02-24T04:25:08.101Z,100518.69
2023-02-24T04:27:36.223Z,100516.60
2023-02-24T04:30:04.609Z,100511.84
2023-02-24T04:32:33.824Z,100510.82
2023-02-24T04:35:07.753Z,100506.95
2023-02-24T04:37:36.478Z,100506.91
2023-02-24T04:40:04.950Z,100507.06
2023-02-24T04:42:33.564Z,100501.70
2023-02-24T04:45:01.528Z,100501.32
2023-02-24T04:47:30.796Z,100503.73
2023-02-24T04:49:59.228Z,100501.23
2023-02-24T04:52:27.707Z,100502.45
2023-02-24T04:54:56.001Z,100499.77
2023-02-24T04:57:25.207Z,100500.45
2023-02-24T04:59:53.317Z,100497.27
2023-02-24T05:02:21.263Z,100497.21
2023-02-24T05:04:50.974Z,100493.82
2023-02-24T05:07:18.983Z,100490.09
2023-02-24T05:09:47.778Z,100492.70
2023-02-24T05:12:16.409Z,100493.53
2023-02-24T05:14:44.766Z,100495.10
2023-02-24T05:17:12.721Z,100488.14
2023-02-24T05:19:41.275Z,100487.58
2023-02-24T05:22:09.392Z,100486.13
2023-02-24T05:24:38.658Z,100483.25
2023-02-24T05:27:07.799Z,100478.41
2023-02-24T05:29:37.346Z,100476.23
2023-02-24T05:32:05.820Z,100476.20
2023-02-24T05:34:34.278Z,100478.95
2023-02-24T05:37:02.898Z,100479.58
2023-02-24T05:39:31.389Z,100478.47
2023-02-24T05:42:00.464Z,100481.08
2023-02-24T05:44:29.010Z,100484.70
2023-02-24T05:46:57.569Z,100485.17
2023-02-24T05:49:28.237Z,100483.00
2023-02-24T05:51:57.906Z,100487.19
2023-02-24T05:54:28.299Z,100487.50
2023-02-24T05:56:59.012Z,100487.62
2023-02-24T05:59:27.788Z,100487.23
2023-02-24T06:01:56.055Z,100486.31
2023-02-24T06:04:24.351Z,100488.77
2023-02-24T06:06:52.873Z,100487.86
2023-02-24T06:09:21.151Z,100485.56
2023-02-24T06:11:49.919Z,100489.41
2023-02-24T06:14:17.964Z,100492.06
2023-02-24T06:16:47.466Z,100499.65
2023-02-24T06:19:17.549Z,100495.41
2023-02-24T06:21:45.686Z,100495.57
2023-02-24T06:24:14.717Z,100494.86
2023-02-24T06:26:44.393Z,100493.63
2023-02-24T06:29:13.394Z,100496.05
2023-02-24T06:31:42.270Z,100497.10
2023-02-24T06:34:11.384Z,100499.36
2023-02-24T06:36:39.428Z,100503.22
2023-02-24T06:39:07.910Z,100506.90
2023-02-24T06:41:36.330Z,100509.16
2023-02-24T06:44:04.274Z,100513.40
2023-02-24T06:46:32.473Z,100516.70
2023-02-24T06:49:01.163Z,100519.85
2023-02-24T06:51:29.282Z,100523.73
2023-02-24T06:53:57.987Z,100532.02
2023-02-24T06:56:27.151Z,100534.17
2023-02-24T06:58:56.112Z,100537.04
2023-02-24T07:01:26.006Z,100544.70
2023-02-24T07:03:56.302Z,100544.96
2023-02-24T07:06:24.365Z,100548.27
2023-02-24T07:08:53.121Z,100546.41
2023-02-24T07:11:21.582Z,100551.66
2023-02-24T07:13:50.171Z,100555.15
2023-02-24T07:16:20.372Z,100560.21
2023-02-24T07:18:48.757Z,100558.95
2023-02-24T07:21:17.045Z,100555.05
2023-02-24T07:23:46.010Z,100556.09
2023-02-24T07:26:15.267Z,100551.87
2023-02-24T07:28:43.896Z,100551.20
2023-02-24T07:31:13.500Z,100548.89
2023-02-24T07:33:41.972Z,100540.89
2023-02-24T07:36:11.655Z,100541.35
2023-02-24T07:38:40.007Z,100542.56
2023-02-24T07:41:09.093Z,100543.23
2023-02-24T07:43:38.362Z,100544.61
2023-02-24T07:46:08.095Z,100548.98
2023-02-24T07:48:36.283Z,100551.82
2023-02-24T07:51:11.235Z,100555.35
2023-02-24T07:53:39.285Z,100556.98
2023-02-24T07:56:11.269Z,100558.02
2023-02-24T07:58:40.536Z,100563.23
2023-02-24T08:01:09.092Z,100549.68
2023-02-24T08:03:38.218Z,100546.36
2023-02-24T08:06:06.356Z,100542.39
2023-02-24T08:08:34.270Z,100539.95
2023-02-24T08:11:02.314Z,100537.58
2023-02-24T08:13:30.334Z,100532.50
2023-02-24T08:15:58.404Z,100527.48
2023-02-24T08:18:26.664Z,100519.31
2023-02-24T08:20:54.789Z,100511.04
2023-02-24T08:23:23.253Z,100507.23
2023-02-24T08:25:51.459Z,100502.91
2023-02-24T08:28:19.581Z,100497.48
2023-02-24T08:30:47.778Z,100497.09
2023-02-24T08:33:21.459Z,100496.22
2023-02-24T08:35:53.523Z,100484.95
2023-02-24T08:38:24.694Z,100475.98
2023-02-24T08:40:54.002Z,100477.35
2023-02-24T08:43:25.557Z,100480.06
2023-02-24T08:45:55.023Z,100485.67
2023-02-24T08:48:25.145Z,100493.35
2023-02-24T08:50:54.199Z,100501.91
2023-02-24T08:53:22.997Z,100514.33
2023-02-24T08:55:52.551Z,100507.45
2023-02-24T08:58:21.130Z,100505.98
2023-02-24T09:00:49.731Z,100505.59
2023-02-24T09:03:21.535Z,100507.21
2023-02-24T09:05:49.492Z,100512.38
2023-02-24T09:08:17.556Z,100526.41
2023-02-24T09:10:47.859Z,100527.02
2023-02-24T09:13:16.093Z,100510.86
2023-02-24T09:15:44.502Z,100506.60
2023-02-24T09:18:14.406Z,100507.51
2023-02-24T09:20:42.600Z,100507.52
2023-02-24T09:23:12.939Z,100513.40
2023-02-24T09:25:41.844Z,100518.58
2023-02-24T09:28:12.977Z,100523.38
2023-02-24T09:30:41.785Z,100530.50
2023-02-24T09:33:21.534Z,100539.56
2023-02-24T09:36:00.049Z,100556.66
2023-02-24T09:38:29.189Z,100557.19
2023-02-24T09:40:57.772Z,100558.27
2023-02-24T09:43:29.813Z,100563.23
2023-02-24T09:46:01.131Z,100569.29
2023-02-24T09:48:34.379Z,100571.23
2023-02-24T09:51:04.588Z,100573.20
2023-02-24T09:53:35.529Z,100578.86
2023-02-24T09:56:05.886Z,100569.23
2023-02-24T09:58:46.534Z,100561.14
2023-02-24T10:01:36.620Z,100554.71
2023-02-24T10:04:20.243Z,100556.63
2023-02-24T10:06:50.342Z,100554.85
2023-02-24T10:09:38.315Z,100555.54
2023-02-24T10:12:09.014Z,100557.13
2023-02-24T10:14:44.372Z,100559.41
2023-02-24T10:17:24.739Z,100560.11
2023-02-24T10:20:11.697Z,100561.90
2023-02-24T10:22:56.904Z,100560.15
2023-02-24T10:25:43.377Z,100560.00
2023-02-24T10:28:17.508Z,100568.55
2023-02-24T10:30:50.877Z,100569.96
2023-02-24T10:33:21.681Z,100571.89
2023-02-24T10:35:49.915Z,100566.73
2023-02-24T10:38:18.299Z,100565.67
2023-02-24T10:40:49.309Z,100569.06
2023-02-24T10:43:19.884Z,100568.15
2023-02-24T10:45:48.458Z,100565.30
2023-02-24T10:48:32.300Z,100563.23
2023-02-24T10:51:18.106Z,100561.19
2023-02-24T10:53:50.483Z,100556.80
2023-02-24T10:56:20.561Z,100551.13
2023-02-24T10:59:01.689Z,100543.14
2023-02-24T11:01:31.730Z,100549.00
2023-02-24T11:04:01.560Z,100540.98
2023-02-24T11:06:30.758Z,100541.18
2023-02-24T11:08:58.879Z,100531.02
2023-02-24T11:11:32.808Z,100522.84
2023-02-24T11:14:02.058Z,100521.77
2023-02-24T11:16:40.487Z,100524.97
2023-02-24T11:19:10.740Z,100525.67
2023-02-24T11:21:39.555Z,100526.01
2023-02-24T11:24:13.578Z,100525.29
2023-02-24T11:26:41.997Z,100520.73
2023-02-24T11:29:20.644Z,100511.52
2023-02-24T11:32:15.974Z,100514.65
2023-02-24T11:34:56.720Z,100502.19
2023-02-24T11:37:40.660Z,100501.48
2023-02-24T11:40:19.663Z,100498.75
2023-02-24T11:42:52.545Z,100501.60
2023-02-24T11:45:39.874Z,100499.95
2023-02-24T11:48:20.291Z,100496.39
2023-02-24T11:51:06.538Z,100502.11
2023-02-24T11:53:37.548Z,100502.31
2023-02-24T11:56:12.239Z,100501.11
2023-02-24T11:58:43.874Z,100502.66
2023-02-24T12:01:20.346Z,100493.68
2023-02-24T12:04:01.303Z,100484.81
2023-02-24T12:06:33.716Z,100479.82
2023-02-24T12:09:06.886Z,100474.64
2023-02-24T12:11:39.860Z,100474.21
2023-02-24T12:14:07.879Z,100471.27
2023-02-24T12:16:38.334Z,100466.80
2023-02-24T12:19:23.829Z,100463.84
2023-02-24T12:21:56.033Z,100464.73
2023-02-24T12:24:24.458Z,100467.05
2023-02-24T12:26:58.535Z,100457.69
2023-02-24T12:29:33.150Z,100458.51
2023-02-24T12:32:07.036Z,100453.58
2023-02-24T12:34:54.427Z,100455.94
2023-02-24T12:37:31.309Z,100452.02
2023-02-24T12:39:59.895Z,100448.63
2023-02-24T12:42:46.216Z,100439.92
2023-02-24T12:45:35.685Z,100437.73
2023-02-24T12:48:39.748Z,100437.20
2023-02-24T12:51:12.760Z,100441.27
2023-02-24T12:53:44.788Z,100437.16
2023-02-24T12:56:24.196Z,100435.73
2023-02-24T12:58:56.655Z,100433.04
2023-02-24T13:01:33.854Z,100428.23
2023-02-24T13:04:07.902Z,100425.72
2023-02-24T13:06:48.548Z,100426.39
2023-02-24T13:09:35.405Z,100419.96
2023-02-24T13:12:13.084Z,100410.70
2023-02-24T13:14:42.114Z,100406.94
2023-02-24T13:17:13.057Z,100395.18
2023-02-24T13:19:43.188Z,100392.55
2023-02-24T13:22:11.689Z,100385.13
2023-02-24T13:24:55.186Z,100377.31
2023-02-24T13:27:24.677Z,100372.52
2023-02-24T13:29:56.137Z,100360.97
2023-02-24T13:32:27.706Z,100357.80
2023-02-24T13:34:57.058Z,100355.15
2023-02-24T13:37:33.536Z,100356.92
2023-02-24T13:40:13.361Z,100350.36
2023-02-24T13:42:41.509Z,100352.02
2023-02-24T13:45:12.683Z,100348.48
2023-02-24T13:48:01.596Z,100337.64
2023-02-24T13:50:41.276Z,100334.09
2023-02-24T13:53:32.156Z,100333.02
2023-02-24T13:56:33.105Z,100330.89
2023-02-24T13:59:19.916Z,100324.32
2023-02-24T14:01:49.982Z,100320.77
2023-02-24T14:04:20.892Z,100317.04
2023-02-24T14:06:50.656Z,100316.33
2023-02-24T14:09:22.886Z,100312.76
2023-02-24T14:11:55.081Z,100317.20
2023-02-24T14:14:24.993Z,100323.96
2023-02-24T14:16:53.135Z,100321.47
2023-02-24T14:19:21.383Z,100320.77
2023-02-24T14:22:00.740Z,100322.89
2023-02-24T14:24:28.985Z,100320.05
2023-02-24T14:26:58.883Z,100309.39
2023-02-24T14:29:31.632Z,100307.61
2023-02-24T14:32:00.511Z,100309.39
2023-02-24T14:34:30.755Z,100307.25
2023-02-24T14:37:01.273Z,100304.05
2023-02-24T14:39:31.272Z,100301.04
2023-02-24T14:42:08.729Z,100296.41
2023-02-24T14:44:41.545Z,100297.48
2023-02-24T14:47:11.773Z,100291.24
2023-02-24T14:49:40.532Z,100283.74
2023-02-24T14:52:22.112Z,100281.08
2023-02-24T14:54:56.298Z,100274.67
2023-02-24T14:57:26.577Z,100267.23
2023-02-24T15:00:03.230Z,100264.42
2023-02-24T15:02:40.949Z,100256.95
2023-02-24T15:05:10.377Z,100259.10
2023-02-24T15:07:39.327Z,100260.70
2023-02-24T15:10:18.079Z,100264.77
2023-02-24T15:12:49.779Z,100268.16
2023-02-24T15:15:20.699Z,100268.84
2023-02-24T15:17:54.835Z,100273.27
2023-02-24T15:20:33.590Z,100282.67
2023-02-24T15:23:01.816Z,100287.92
2023-02-24T15:25:42.246Z,100286.60
2023-02-24T15:28:23.323Z,100288.01
2023-02-24T15:31:03.713Z,100288.51
2023-02-24T15:33:39.587Z,100290.41
2023-02-24T15:36:27.807Z,100295.89
2023-02-24T15:39:01.594Z,100291.90
2023-02-24T15:41:43.087Z,100288.85
2023-02-24T15:44:28.472Z,100287.21
2023-02-24T15:47:00.489Z,100280.93
2023-02-24T15:49:28.953Z,100280.20
2023-02-24T15:51:57.526Z,100278.95
2023-02-24T15:54:36.990Z,100276.25
2023-02-24T15:57:05.398Z,100274.08
2023-02-24T15:59:33.339Z,100275.30
2023-02-24T16:02:01.400Z,100280.95
2023-02-24T16:04:42.846Z,100280.77
2023-02-24T16:07:31.132Z,100281.30
2023-02-24T16:10:00.289Z,100284.32
2023-02-24T16:12:34.682Z,100283.64
2023-02-24T16:15:04.601Z,100284.52
2023-02-24T16:17:38.353Z,100292.45
2023-02-24T16:20:08.560Z,100290.45
2023-02-24T16:22:36.657Z,100289.17
2023-02-24T16:25:06.734Z,100292.36
2023-02-24T16:27:35.562Z,100292.27
2023-02-24T16:30:04.018Z,100291.15
2023-02-24T16:32:32.424Z,100299.05
2023-02-24T16:35:02.648Z,100297.73
2023-02-24T16:37:31.101Z,100302.06
2023-02-24T16:40:02.433Z,100299.74
2023-02-24T16:42:31.867Z,100302.17
2023-02-24T16:45:00.059Z,100300.54
2023-02-24T16:47:29.163Z,100299.08
2023-02-24T16:49:57.297Z,100298.70
2023-02-24T16:52:25.397Z,100302.20
2023-02-24T16:54:54.003Z,100297.80
2023-02-24T16:57:22.148Z,100298.15
2023-02-24T16:59:50.536Z,100297.64
2023-02-24T17:02:23.647Z,100294.82
2023-02-24T17:04:51.804Z,100298.02
2023-02-24T17:07:20.303Z,100296.23
2023-02-24T17:09:48.711Z,100296.42
2023-02-24T17:12:21.706Z,100302.26
2023-02-24T17:14:50.266Z,100304.69
2023-02-24T17:17:18.479Z,100307.15
2023-02-24T17:19:46.810Z,100313.52
2023-02-24T17:22:15.015Z,100315.80
2023-02-24T17:24:43.286Z,100313.12
2023-02-24T17:27:11.715Z,100312.88
2023-02-24T17:29:47.296Z,100309.52
2023-02-24T17:32:32.939Z,100314.98
2023-02-24T17:35:16.806Z,100317.20
2023-02-24T17:37:44.876Z,100320.52
2023-02-24T17:40:13.191Z,100319.95
2023-02-24T17:42:41.571Z,100320.63
2023-02-24T17:45:11.738Z,100316.35
2023-02-24T17:47:40.480Z,100321.98
2023-02-24T17:50:09.780Z,100326.58
2023-02-24T17:52:38.640Z,100328.14
2023-02-24T17:55:07.661Z,100323.70
2023-02-24T17:57:36.337Z,100326.88
2023-02-24T18:00:06.384Z,100328.97
2023-02-24T18:02:35.009Z,100328.42
2023-02-24T18:05:03.141Z,100330.68
2023-02-24T18:07:31.264Z,100328.38
2023-02-24T18:09:59.753Z,100328.19
2023-02-24T18:12:28.386Z,100327.63
2023-02-24T18:15:07.231Z,100328.14
2023-02-24T18:17:36.099Z,100332.91
2023-02-24T18:20:04.832Z,100340.48
2023-02-24T18:22:32.911Z,100339.58
2023-02-24T18:25:01.145Z,100343.47
2023-02-24T18:27:29.107Z,100340.09
2023-02-24T18:29:57.366Z,100341.30
2023-02-24T18:32:26.040Z,100346.61
2023-02-24T18:34:54.114Z,100352.28
2023-02-24T18:37:22.212Z,100351.24
2023-02-24T18:39:50.316Z,100354.09
2023-02-24T18:42:18.475Z,100352.98
2023-02-24T18:44:46.413Z,100354.75
2023-02-24T18:47:14.852Z,100361.47
2023-02-24T18:49:42.857Z,100356.51
2023-02-24T18:52:11.060Z,100356.16
2023-02-24T18:54:39.058Z,100357.39
2023-02-24T18:57:07.054Z,100356.16
2023-02-24T18:59:35.068Z,100354.21
2023-02-24T19:02:03.352Z,100350.66
2023-02-24T19:04:31.420Z,100355.25
2023-02-24T19:06:59.613Z,100349.61
2023-02-24T19:09:27.671Z,100346.27
2023-02-24T19:11:55.733Z,100337.96
2023-02-24T19:14:23.788Z,100339.88
2023-02-24T19:16:51.875Z,100341.63
2023-02-24T19:19:19.853Z,100346.02
2023-02-24T19:21:47.901Z,100345.86
2023-02-24T19:24:16.992Z,100341.29
2023-02-24T19:26:45.200Z,100338.45
2023-02-24T19:29:13.512Z,100339.17
2023-02-24T19:31:41.924Z,100337.95
2023-02-24T19:34:14.822Z,100337.78
2023-02-24T19:36:43.741Z,100338.86
2023-02-24T19:39:14.078Z,100342.20
2023-02-24T19:41:42.315Z,100341.50
2023-02-24T19:44:10.926Z,100342.39
2023-02-24T19:46:39.585Z,100339.73
2023-02-24T19:49:07.594Z,100341.00
2023-02-24T19:51:36.242Z,100341.69
2023-02-24T19:54:04.653Z,100339.73
2023-02-24T19:56:35.401Z,100339.86
2023-02-24T19:59:05.024Z,100335.58
2023-02-24T20:01:33.124Z,100332.91
2023-02-24T20:04:02.505Z,100332.91
2023-02-24T20:06:32.640Z,100331.11
2023-02-24T20:09:00.935Z,100332.14
2023-02-24T20:11:29.230Z,100331.58
2023-02-24T20:13:57.456Z,100333.13
2023-02-24T20:16:26.542Z,100334.89
2023-02-24T20:18:55.436Z,100338.09
2023-02-24T20:21:24.418Z,100340.18
2023-02-24T20:23:52.712Z,100346.52
2023-02-24T20:26:21.575Z,100344.38
2023-02-24T20:28:50.216Z,100346.14
2023-02-24T20:31:19.277Z,100344.53
2023-02-24T20:33:47.976Z,100342.55
2023-02-24T20:36:21.541Z,100347.66
2023-02-24T20:38:50.825Z,100349.96
2023-02-24T20:41:19.638Z,100358.26
2023-02-24T20:43:48.339Z,100360.40
2023-02-24T20:46:17.847Z,100359.34
2023-02-24T20:48:45.932Z,100359.86
2023-02-24T20:51:14.728Z,100361.64
2023-02-24T20:53:56.104Z,100363.55
2023-02-24T20:56:27.306Z,100364.45
2023-02-24T20:59:02.833Z,100369.92
2023-02-24T21:01:31.690Z,100366.72
2023-02-24T21:04:00.745Z,100360.16
2023-02-24T21:06:29.807Z,100366.52
2023-02-24T21:08:58.408Z,100369.48
2023-02-24T21:11:26.954Z,100365.92
2023-02-24T21:13:55.162Z,100364.81
2023-02-24T21:16:24.129Z,100363.56
2023-02-24T21:18:52.876Z,100368.13
2023-02-24T21:21:21.345Z,100372.90
2023-02-24T21:23:49.613Z,100369.90
2023-02-24T21:26:17.905Z,100377.17
2023-02-24T21:28:46.312Z,100374.00
2023-02-24T21:31:16.436Z,100374.19
2023-02-24T21:33:44.574Z,100376.14
2023-02-24T21:36:14.136Z,100375.44
2023-02-24T21:38:42.377Z,100373.52
2023-02-24T21:41:13.138Z,100376.88
2023-02-24T21:43:42.111Z,100374.23
2023-02-24T21:46:10.998Z,100372.63
2023-02-24T21:48:39.016Z,100367.86
2023-02-24T21:51:07.974Z,100366.45
2023-02-24T21:53:38.062Z,100365.17
2023-02-24T21:56:07.599Z,100364.98
2023-02-24T21:58:35.637Z,100362.34
2023-02-24T22:01:15.019Z,100361.58
2023-02-24T22:03:43.528Z,100368.62
2023-02-24T22:06:12.433Z,100371.60
2023-02-24T22:08:40.545Z,100369.63
2023-02-24T22:11:09.216Z,100366.63
2023-02-24T22:13:37.687Z,100369.43
2023-02-24T22:16:07.003Z,100366.59
2023-02-24T22:18:35.108Z,100364.83
2023-02-24T22:21:10.434Z,100361.80
2023-02-24T22:23:38.426Z,100362.86
2023-02-24T22:26:08.281Z,100358.97
2023-02-24T22:28:38.221Z,100357.02
2023-02-24T22:31:07.705Z,100359.84
2023-02-24T22:33:37.255Z,100362.51
2023-02-24T22:36:07.071Z,100359.48
2023-02-24T22:38:36.204Z,100364.94
2023-02-24T22:41:05.845Z,100363.52
2023-02-24T22:43:34.786Z,100364.20
2023-02-24T22:46:04.656Z,100364.69
2023-02-24T22:48:33.959Z,100363.79
2023-02-24T22:51:03.233Z,100362.87
2023-02-24T22:53:32.178Z,100359.15
2023-02-24T22:56:00.353Z,100360.20
2023-02-24T22:58:28.752Z,100361.61
2023-02-24T23:00:56.813Z,100364.45
2023-02-24T23:03:27.661Z,100366.90
2023-02-24T23:06:00.520Z,100368.83
2023-02-24T23:08:30.140Z,100373.56
2023-02-24T23:11:06.333Z,100375.50
2023-02-24T23:13:34.431Z,100375.98
2023-02-24T23:16:03.137Z,100369.74
2023-02-24T23:18:31.846Z,100374.10
2023-02-24T23:21:05.339Z,100380.45
2023-02-24T23:23:34.181Z,100376.33
2023-02-24T23:26:02.504Z,100371.32
2023-02-24T23:28:30.729Z,100365.58
2023-02-24T23:30:59.337Z,100364.83
2023-02-24T23:33:27.444Z,100367.41
2023-02-24T23:35:55.488Z,100370.53
2023-02-24T23:38:23.637Z,100370.81
2023-02-24T23:40:51.658Z,100371.13
2023-02-24T23:43:19.860Z,100377.40
2023-02-24T23:45:48.119Z,100378.24
2023-02-24T23:48:16.355Z,100374.87
2023-02-24T23:50:44.364Z,100373.63
2023-02-24T23:53:12.486Z,100367.61
2023-02-24T23:55:40.622Z,100363.69
2023-02-24T23:58:08.655Z,100361.02
